McCarran, Nevada
Current Conditions -  °F | °C
As of 10:55 AM on Friday 21 Nov 2014 (Local Time) from KRNO Reporting Station
Broken Clouds Broken Clouds  
Wind Chill: 46°   Ceiling: 25000
Heat Index: 46°   Visibility: 10mi
Dew Point: 34°   Wind: 0mph
Humidity: 63%   Direction: NA
Pressure: 30.06"   Gusts: NA
Location:  39.5403°N, 119.672°W
Report Text: KRNO 211855Z 00000KT 10SM FEW025 SCT120 SCT180 BKN250 08/01 A3006 RMK AO2 SLP172 T00780011
Loading
Personal Weather Stations






























Interactive Weather Map New forecast layout! Learn more

10-Day Weather Forecast

Advertisements
Track Severe Weather on mobile